Time;durP1;ratioP1;P1;durP2;ratioP2;P2;SDS_P1;SDS_P2;PMS_P1;PMS_P2;Temp;Humidity;BMP_temperature;BMP_pressure;BME280_temperature;BME280_humidity;BME280_pressure;Samples;Min_cycle;Max_cycle;Signal;HPM_P1;HPM_P2
2023/01/24 00:02:48;;;;;;;17.80;10.43;;;4.00;99.90;;;;;;6284232;28;20045;-82
2023/01/24 00:05:50;;;;;;;17.88;10.98;;;4.00;99.90;;;;;;6285158;28;20136;-81
2023/01/24 00:08:53;;;;;;;16.45;11.18;;;4.00;99.90;;;;;;6287690;28;20049;-81
2023/01/24 00:11:55;;;;;;;21.08;12.32;;;4.00;99.90;;;;;;6285303;28;20071;-82
2023/01/24 00:14:58;;;;;;;18.55;10.70;;;4.00;99.90;;;;;;6288780;28;20085;-81
2023/01/24 00:18:00;;;;;;;19.30;13.23;;;4.00;99.90;;;;;;6281772;28;20045;-81
2023/01/24 00:21:03;;;;;;;18.25;11.88;;;3.90;99.90;;;;;;6277319;28;20506;-81
2023/01/24 00:24:06;;;;;;;18.38;11.82;;;4.00;99.90;;;;;;6283765;28;20049;-81
2023/01/24 00:27:07;;;;;;;19.92;13.00;;;3.90;99.90;;;;;;6285090;28;20055;-81
2023/01/24 00:30:11;;;;;;;19.05;12.82;;;3.90;99.90;;;;;;6281448;28;20155;-81
2023/01/24 00:33:13;;;;;;;15.45;9.88;;;3.90;99.90;;;;;;6286668;28;20158;-81
2023/01/24 00:36:15;;;;;;;19.05;12.30;;;3.90;99.90;;;;;;6286664;28;20047;-81
2023/01/24 00:39:16;;;;;;;18.25;11.90;;;3.90;99.90;;;;;;6287357;28;20052;-80
2023/01/24 00:42:18;;;;;;;16.13;10.05;;;3.90;99.90;;;;;;6288097;28;20537;-81
2023/01/24 00:45:21;;;;;;;17.83;11.75;;;3.90;99.90;;;;;;6288597;28;20417;-80
2023/01/24 00:48:23;;;;;;;14.10;9.77;;;3.90;99.90;;;;;;6289377;28;20057;-81
2023/01/24 00:51:25;;;;;;;23.17;12.30;;;3.90;99.90;;;;;;6290660;28;20053;-80
2023/01/24 00:54:27;;;;;;;15.23;10.20;;;3.90;99.90;;;;;;6288023;28;20055;-81
2023/01/24 00:57:28;;;;;;;18.92;9.68;;;3.90;99.90;;;;;;6291432;28;20045;-81
2023/01/24 01:00:32;;;;;;;20.40;11.25;;;3.90;99.90;;;;;;6291868;28;20045;-82
2023/01/24 01:03:34;;;;;;;17.63;10.93;;;3.90;99.90;;;;;;6291122;28;20072;-81
2023/01/24 01:06:38;;;;;;;17.42;10.10;;;3.90;99.90;;;;;;6285649;28;20075;-82
2023/01/24 01:09:44;;;;;;;16.00;11.07;;;3.90;99.90;;;;;;6306147;28;20049;-81
2023/01/24 01:12:46;;;;;;;16.70;9.68;;;3.90;99.90;;;;;;6280705;28;20068;-81
2023/01/24 01:15:49;;;;;;;19.20;12.73;;;3.90;99.90;;;;;;6280188;28;20060;-81
2023/01/24 01:18:56;;;;;;;12.48;9.23;;;3.90;99.90;;;;;;6274455;28;20042;-81
2023/01/24 01:21:58;;;;;;;19.95;10.68;;;3.90;99.90;;;;;;6276463;28;20064;-81
2023/01/24 01:25:00;;;;;;;18.63;11.57;;;3.90;99.90;;;;;;6282635;28;20077;-81
2023/01/24 01:28:01;;;;;;;15.35;9.98;;;3.80;99.90;;;;;;6283732;28;20041;-81
2023/01/24 01:31:05;;;;;;;18.25;10.70;;;3.80;99.90;;;;;;6282308;28;20128;-82
2023/01/24 01:41:27;;;;;;;;;;;3.80;99.90;;;;;;6283565;28;20045;-82
2023/01/24 01:44:46;;;;;;;19.33;11.40;;;3.80;99.90;;;;;;6282610;28;19948;-82
2023/01/24 01:48:14;;;;;;;;;;;3.80;99.90;;;;;;6280258;28;20118;-82
2023/01/24 01:51:45;;;;;;;19.10;11.93;;;3.80;99.90;;;;;;6282017;28;19921;-82
2023/01/24 01:55:26;;;;;;;18.65;11.30;;;3.80;99.90;;;;;;6288435;28;20541;-82
2023/01/24 01:58:35;;;;;;;17.02;9.90;;;3.70;99.90;;;;;;6282868;28;20047;-82
2023/01/24 02:01:43;;;;;;;19.02;12.20;;;3.80;99.90;;;;;;6284769;28;20049;-81
2023/01/24 02:04:49;;;;;;;18.48;13.50;;;3.70;99.90;;;;;;6290094;28;20048;-82
2023/01/24 02:08:11;;;;;;;16.92;10.95;;;3.70;99.90;;;;;;6284933;28;20135;-82
2023/01/24 02:18:00;;;;;;;17.20;10.88;;;3.70;99.90;;;;;;6279250;28;20041;-81
2023/01/24 02:21:04;;;;;;;17.35;11.55;;;3.70;99.90;;;;;;6265533;28;20044;-81
2023/01/24 02:24:17;;;;;;;17.70;10.40;;;3.80;99.90;;;;;;6279422;28;20052;-81
2023/01/24 02:27:20;;;;;;;20.48;10.52;;;3.70;99.90;;;;;;6279549;28;20061;-81
2023/01/24 02:30:21;;;;;;;18.17;11.70;;;3.70;99.90;;;;;;6282032;28;20053;-81
2023/01/24 02:33:23;;;;;;;16.00;10.32;;;3.70;99.90;;;;;;6274394;28;20073;-81
2023/01/24 02:36:29;;;;;;;16.10;10.77;;;3.70;99.90;;;;;;6273262;28;20048;-81
2023/01/24 02:39:34;;;;;;;16.98;11.32;;;3.70;99.90;;;;;;6272776;28;20048;-81
2023/01/24 02:42:40;;;;;;;17.95;10.63;;;3.80;99.90;;;;;;6273677;28;20059;-81
2023/01/24 02:45:42;;;;;;;16.98;10.35;;;3.80;99.90;;;;;;6274540;28;20095;-81
2023/01/24 02:48:43;;;;;;;20.52;11.13;;;3.80;99.90;;;;;;6272352;28;20140;-81
2023/01/24 02:55:05;;;;;;;19.45;11.98;;;3.80;99.90;;;;;;6276425;28;20077;-81
2023/01/24 02:58:07;;;;;;;12.80;9.38;;;3.80;99.90;;;;;;6276526;28;20414;-80
2023/01/24 03:01:09;;;;;;;14.73;9.90;;;3.80;99.90;;;;;;6275889;28;20048;-81
2023/01/24 03:04:12;;;;;;;18.13;11.93;;;3.70;99.90;;;;;;6274458;28;20045;-81
2023/01/24 03:07:14;;;;;;;23.45;10.55;;;3.70;99.90;;;;;;6275412;28;20179;-81
2023/01/24 03:10:17;;;;;;;18.40;11.68;;;3.80;99.90;;;;;;6276808;28;20049;-82
2023/01/24 03:36:41;;;;;;;16.30;11.48;;;3.80;99.90;;;;;;6275232;28;20053;-82
2023/01/24 03:39:58;;;;;;;23.20;11.95;;;3.80;99.90;;;;;;6278298;28;20057;-82
2023/01/24 03:43:01;;;;;;;19.63;10.98;;;3.80;99.90;;;;;;6278284;28;20123;-82
2023/01/24 03:46:04;;;;;;;22.13;12.50;;;3.70;99.90;;;;;;6278902;28;20379;-82
2023/01/24 03:49:06;;;;;;;21.35;14.05;;;3.80;99.90;;;;;;6275939;28;20670;-83
2023/01/24 03:52:27;;;;;;;19.15;11.40;;;3.80;99.90;;;;;;6276688;28;20099;-82
2023/01/24 03:55:29;;;;;;;22.02;11.30;;;3.80;99.90;;;;;;6277383;28;20040;-82
2023/01/24 03:58:31;;;;;;;19.75;12.25;;;3.80;99.90;;;;;;6278852;28;20410;-82
2023/01/24 04:01:34;;;;;;;20.42;12.52;;;3.80;99.90;;;;;;6277205;28;20057;-82
2023/01/24 04:07:53;;;;;;;19.85;12.13;;;3.80;99.90;;;;;;6271343;28;20045;-80
2023/01/24 04:10:56;;;;;;;21.92;11.95;;;3.80;99.90;;;;;;6268917;28;20053;-80
2023/01/24 04:13:58;;;;;;;18.13;10.80;;;3.80;99.90;;;;;;6273427;28;20410;-80
2023/01/24 04:17:01;;;;;;;19.30;12.02;;;3.80;99.90;;;;;;6271327;28;20494;-80
2023/01/24 04:20:02;;;;;;;16.83;8.73;;;3.80;99.90;;;;;;6271416;28;20094;-80
2023/01/24 04:23:08;;;;;;;20.30;12.20;;;3.80;99.90;;;;;;6254565;28;20502;-81
2023/01/24 04:26:10;;;;;;;17.60;10.48;;;3.70;99.90;;;;;;6272009;28;20060;-80
2023/01/24 04:29:12;;;;;;;21.02;12.10;;;3.80;99.90;;;;;;6270672;28;20403;-80
2023/01/24 04:32:19;;;;;;;20.63;12.50;;;3.80;99.90;;;;;;6271740;28;20514;-81
2023/01/24 04:35:23;;;;;;;19.17;12.07;;;3.80;99.90;;;;;;6272007;28;20418;-80
2023/01/24 04:38:25;;;;;;;20.33;13.02;;;3.80;99.90;;;;;;6271826;28;20055;-80
2023/01/24 04:41:26;;;;;;;19.67;11.85;;;3.80;99.90;;;;;;6273494;28;20060;-80
2023/01/24 04:44:28;;;;;;;16.02;10.48;;;3.80;99.90;;;;;;6271389;28;20052;-80
2023/01/24 04:47:32;;;;;;;20.40;11.93;;;3.80;99.90;;;;;;6271096;28;20059;-80
2023/01/24 04:50:33;;;;;;;18.10;12.27;;;3.80;99.90;;;;;;6270354;28;20045;-81
2023/01/24 04:53:35;;;;;;;21.33;12.05;;;3.80;99.90;;;;;;6271896;28;20049;-80
2023/01/24 04:56:37;;;;;;;21.23;11.48;;;3.80;99.90;;;;;;6276699;28;20461;-80
2023/01/24 04:59:39;;;;;;;20.73;11.27;;;3.80;99.90;;;;;;6276156;28;20060;-80
2023/01/24 05:02:42;;;;;;;16.13;12.20;;;3.80;99.90;;;;;;6277320;28;20053;-80
2023/01/24 05:05:44;;;;;;;20.13;11.93;;;3.80;99.90;;;;;;6277377;28;20049;-80
2023/01/24 05:08:45;;;;;;;19.75;14.55;;;3.80;99.90;;;;;;6275965;28;20048;-80
2023/01/24 05:11:47;;;;;;;16.77;11.73;;;3.80;99.90;;;;;;6276505;28;20533;-80
2023/01/24 05:14:49;;;;;;;14.63;9.95;;;3.80;99.90;;;;;;6275848;28;20041;-80
2023/01/24 05:17:52;;;;;;;19.83;12.25;;;3.80;99.90;;;;;;6276506;28;20044;-81
2023/01/24 05:20:54;;;;;;;18.92;12.30;;;3.80;99.90;;;;;;6276507;28;20060;-80
2023/01/24 05:23:56;;;;;;;21.73;12.27;;;3.80;99.90;;;;;;6266660;28;20147;-81
2023/01/24 05:26:58;;;;;;;22.65;14.25;;;3.80;99.90;;;;;;6276280;28;20048;-80
2023/01/24 05:29:59;;;;;;;21.65;13.45;;;3.80;99.90;;;;;;6275771;28;20053;-80
2023/01/24 05:33:03;;;;;;;18.65;12.85;;;3.80;99.90;;;;;;6275970;28;20053;-80
2023/01/24 05:36:07;;;;;;;19.55;12.88;;;3.80;99.90;;;;;;6276172;28;20417;-80
2023/01/24 05:39:09;;;;;;;17.83;10.32;;;3.80;99.90;;;;;;6274840;28;20060;-80
2023/01/24 05:42:11;;;;;;;18.52;11.63;;;3.80;99.90;;;;;;6276237;28;20049;-80
2023/01/24 05:45:13;;;;;;;20.15;11.60;;;3.80;99.90;;;;;;6277765;28;20041;-80
2023/01/24 05:48:16;;;;;;;18.92;11.88;;;3.80;99.90;;;;;;6276905;28;20041;-80
2023/01/24 05:51:19;;;;;;;22.63;13.05;;;3.80;99.90;;;;;;6277981;28;20495;-80
2023/01/24 05:54:21;;;;;;;20.58;11.30;;;3.80;99.90;;;;;;6277654;28;20049;-80
2023/01/24 05:57:22;;;;;;;23.45;13.60;;;3.80;99.90;;;;;;6276504;28;20052;-81
2023/01/24 06:00:24;;;;;;;26.77;13.32;;;3.80;99.90;;;;;;6276616;28;20045;-80
2023/01/24 06:03:27;;;;;;;19.38;13.50;;;3.80;99.90;;;;;;6278325;28;20049;-80
2023/01/24 06:06:29;;;;;;;20.45;11.85;;;3.80;99.90;;;;;;6278885;28;20056;-80
2023/01/24 06:09:31;;;;;;;23.98;12.52;;;3.80;99.90;;;;;;6276893;28;20056;-81
2023/01/24 06:12:33;;;;;;;22.73;12.35;;;3.80;99.90;;;;;;6278210;28;20053;-81
2023/01/24 06:15:35;;;;;;;17.38;11.18;;;3.80;99.90;;;;;;6274060;28;20053;-80
2023/01/24 06:18:39;;;;;;;22.40;12.98;;;3.80;99.90;;;;;;6278076;28;20044;-80
2023/01/24 06:21:46;;;;;;;19.40;11.80;;;3.80;99.90;;;;;;6278215;28;20056;-81
2023/01/24 06:24:48;;;;;;;16.05;10.43;;;3.80;99.90;;;;;;6263517;28;20152;-81
2023/01/24 06:27:50;;;;;;;37.90;22.60;;;3.80;99.90;;;;;;6253026;28;20041;-81
2023/01/24 06:31:02;;;;;;;21.75;16.08;;;3.80;99.90;;;;;;6253293;28;20041;-81
2023/01/24 06:34:31;;;;;;;35.30;31.08;;;3.80;99.90;;;;;;6252590;28;20061;-81
2023/01/24 06:37:38;;;;;;;45.47;36.97;;;3.80;99.90;;;;;;6251316;28;20049;-81
2023/01/24 06:40:40;;;;;;;24.80;17.92;;;3.80;99.90;;;;;;6252533;28;20053;-81
2023/01/24 06:43:42;;;;;;;28.55;16.85;;;3.80;99.90;;;;;;6252740;28;20041;-81
2023/01/24 06:46:44;;;;;;;18.70;12.27;;;3.90;99.90;;;;;;6250613;28;20046;-82
2023/01/24 06:49:47;;;;;;;21.80;14.63;;;3.90;99.90;;;;;;6251310;28;20050;-82
2023/01/24 06:52:50;;;;;;;32.58;18.10;;;3.90;99.90;;;;;;6252278;28;20060;-82
2023/01/24 06:56:04;;;;;;;21.80;12.48;;;3.80;99.90;;;;;;6252552;28;20057;-82
2023/01/24 06:59:06;;;;;;;23.75;14.85;;;3.90;99.90;;;;;;6259311;28;20049;-82
2023/01/24 07:02:09;;;;;;;22.58;14.45;;;3.90;99.90;;;;;;6251548;28;20045;-81
2023/01/24 07:05:12;;;;;;;16.75;11.73;;;3.90;99.90;;;;;;6248803;28;20056;-82
2023/01/24 07:08:14;;;;;;;24.95;15.10;;;3.90;99.90;;;;;;6248702;28;20037;-81
2023/01/24 07:11:16;;;;;;;22.08;12.95;;;3.90;99.90;;;;;;6249271;28;20057;-81
2023/01/24 07:14:17;;;;;;;21.05;13.45;;;3.90;99.90;;;;;;6248646;28;20057;-82
2023/01/24 07:17:20;;;;;;;23.55;11.38;;;3.90;99.90;;;;;;6247738;28;20056;-82
2023/01/24 07:20:23;;;;;;;25.95;13.63;;;3.90;99.90;;;;;;6249247;28;20033;-82
2023/01/24 07:23:33;;;;;;;30.67;15.48;;;3.90;99.90;;;;;;6247621;28;20439;-82
2023/01/24 07:26:36;;;;;;;26.77;16.25;;;3.90;99.90;;;;;;6255500;28;20430;-81
2023/01/24 07:29:38;;;;;;;21.05;11.35;;;3.90;99.90;;;;;;6248301;28;20052;-81
2023/01/24 07:32:40;;;;;;;35.22;19.15;;;3.90;99.90;;;;;;6248653;28;20056;-81
2023/01/24 07:35:43;;;;;;;27.38;12.98;;;3.90;99.90;;;;;;6248471;28;20565;-81
2023/01/24 07:38:45;;;;;;;25.13;14.57;;;3.90;99.90;;;;;;6247847;28;20051;-82
2023/01/24 07:41:51;;;;;;;25.30;15.60;;;3.90;99.90;;;;;;6248152;28;20133;-82
2023/01/24 07:44:53;;;;;;;32.30;21.77;;;3.90;99.90;;;;;;6248229;28;20053;-82
2023/01/24 07:47:56;;;;;;;38.40;32.55;;;3.90;99.90;;;;;;6247410;28;20226;-82
2023/01/24 07:51:00;;;;;;;28.60;17.65;;;3.90;99.90;;;;;;6248197;28;20064;-82
2023/01/24 07:54:02;;;;;;;23.23;15.25;;;3.90;99.90;;;;;;6249388;28;20103;-82
2023/01/24 07:57:04;;;;;;;29.95;16.63;;;3.90;99.90;;;;;;6247371;28;20053;-82
2023/01/24 08:00:07;;;;;;;17.88;10.30;;;3.90;99.90;;;;;;6247557;28;20542;-81
2023/01/24 08:03:09;;;;;;;17.52;11.40;;;4.00;99.90;;;;;;6247447;28;20049;-81
2023/01/24 08:06:12;;;;;;;25.15;12.15;;;3.90;99.90;;;;;;6247630;28;20572;-81
2023/01/24 08:09:14;;;;;;;24.27;12.82;;;4.00;99.90;;;;;;6246499;28;20045;-81
2023/01/24 08:12:16;;;;;;;20.90;12.40;;;4.00;99.90;;;;;;6248150;28;20607;-81
2023/01/24 08:15:18;;;;;;;18.50;11.18;;;4.00;99.90;;;;;;6247668;28;20045;-81
2023/01/24 08:18:20;;;;;;;28.15;14.80;;;4.00;99.90;;;;;;6247359;28;20050;-81
2023/01/24 08:21:23;;;;;;;20.02;13.52;;;4.00;99.90;;;;;;6247654;28;20045;-81
2023/01/24 08:24:25;;;;;;;20.38;10.95;;;4.00;99.90;;;;;;6227140;28;20446;-79
2023/01/24 08:27:42;;;;;;;22.70;14.95;;;4.00;99.90;;;;;;6269552;28;20045;-81
2023/01/24 08:30:58;;;;;;;23.80;13.35;;;4.00;99.90;;;;;;6256610;28;20064;-81
2023/01/24 08:34:00;;;;;;;24.55;14.77;;;4.00;99.90;;;;;;6272477;28;20056;-80
2023/01/24 08:37:03;;;;;;;23.13;13.25;;;4.00;99.90;;;;;;6271833;28;20041;-80
2023/01/24 08:40:07;;;;;;;21.25;13.75;;;4.00;99.90;;;;;;6271087;28;20045;-79
2023/01/24 08:43:09;;;;;;;23.42;13.88;;;4.00;99.90;;;;;;6272111;28;20056;-80
2023/01/24 08:46:10;;;;;;;19.95;12.85;;;4.00;99.90;;;;;;6274065;28;20158;-79
2023/01/24 08:49:12;;;;;;;26.45;13.68;;;4.10;99.90;;;;;;6270927;28;20045;-79
2023/01/24 08:52:16;;;;;;;24.50;15.38;;;4.10;99.90;;;;;;6271958;28;20051;-79
2023/01/24 08:55:18;;;;;;;23.20;13.65;;;4.10;99.90;;;;;;6272706;28;20041;-81
2023/01/24 08:58:20;;;;;;;22.33;14.27;;;4.10;99.90;;;;;;6270978;28;20052;-80
2023/01/24 09:01:22;;;;;;;23.88;12.25;;;4.10;99.90;;;;;;6271649;28;20044;-80
2023/01/24 09:04:26;;;;;;;23.75;13.02;;;4.10;99.90;;;;;;6272612;28;20052;-80
2023/01/24 09:07:29;;;;;;;24.27;14.45;;;4.10;99.90;;;;;;6272373;28;20045;-80
2023/01/24 09:10:30;;;;;;;26.95;14.57;;;4.10;99.90;;;;;;6272579;28;20049;-81
2023/01/24 09:13:32;;;;;;;22.02;12.10;;;4.10;99.90;;;;;;6272888;28;20048;-80
2023/01/24 09:16:34;;;;;;;19.83;11.63;;;4.10;99.90;;;;;;6274409;28;20052;-80
2023/01/24 09:19:42;;;;;;;22.20;13.45;;;4.20;99.90;;;;;;6272713;28;20415;-80
2023/01/24 09:22:53;;;;;;;27.88;15.90;;;4.10;99.90;;;;;;6272644;28;20519;-78
2023/01/24 09:25:58;;;;;;;33.67;13.00;;;4.10;99.90;;;;;;6274637;28;20049;-80
2023/01/24 09:28:59;;;;;;;23.15;13.88;;;4.20;99.90;;;;;;6255436;28;20052;-80
2023/01/24 09:32:01;;;;;;;24.13;13.75;;;4.20;99.90;;;;;;6249783;28;20041;-80
2023/01/24 09:35:03;;;;;;;20.75;12.60;;;4.20;99.90;;;;;;6270045;28;20041;-81
2023/01/24 09:38:06;;;;;;;22.25;12.23;;;4.20;99.90;;;;;;6273626;28;20053;-81
2023/01/24 09:41:17;;;;;;;20.30;11.68;;;4.20;99.90;;;;;;6276005;28;20056;-80
2023/01/24 09:44:28;;;;;;;19.55;12.23;;;4.30;99.90;;;;;;6277446;28;20049;-82
2023/01/24 09:47:42;;;;;;;19.25;10.40;;;4.30;99.90;;;;;;6277479;28;20498;-81
2023/01/24 09:50:49;;;;;;;18.10;10.05;;;4.30;99.90;;;;;;6279152;28;20131;-81
2023/01/24 09:53:56;;;;;;;19.02;12.82;;;4.30;99.90;;;;;;6279179;28;20048;-80
2023/01/24 09:56:58;;;;;;;22.35;14.43;;;4.30;99.90;;;;;;6278670;28;20049;-81
2023/01/24 10:00:05;;;;;;;16.75;12.10;;;4.30;99.90;;;;;;6275881;28;20052;-80
2023/01/24 10:03:18;;;;;;;21.92;13.15;;;4.30;99.90;;;;;;6274616;28;20394;-80
2023/01/24 10:06:25;;;;;;;20.77;12.60;;;4.30;99.90;;;;;;6275606;28;20057;-79
2023/01/24 10:09:38;;;;;;;18.63;11.52;;;4.40;99.90;;;;;;6275073;28;20045;-80
2023/01/24 10:12:52;;;;;;;16.35;10.95;;;4.40;99.90;;;;;;6276118;28;20056;-79
2023/01/24 10:16:04;;;;;;;16.65;10.63;;;4.40;99.90;;;;;;6274957;28;20081;-80
2023/01/24 10:19:17;;;;;;;21.85;11.32;;;4.50;99.90;;;;;;6273939;28;20056;-80
2023/01/24 10:22:34;;;;;;;23.33;12.57;;;4.40;99.90;;;;;;6278249;28;20053;-84
2023/01/24 10:25:55;;;;;;;16.83;11.55;;;4.40;99.90;;;;;;6277360;28;20073;-85
2023/01/24 10:29:31;;;;;;;19.98;12.38;;;4.50;99.90;;;;;;6274761;28;20049;-85
2023/01/24 10:33:00;;;;;;;21.77;12.75;;;4.50;99.90;;;;;;6280135;28;20351;-85
2023/01/24 10:36:11;;;;;;;19.33;12.68;;;4.50;99.90;;;;;;6226780;28;20507;-83
2023/01/24 10:39:31;;;;;;;19.52;11.32;;;4.50;99.90;;;;;;6255443;28;20125;-82
2023/01/24 10:42:52;;;;;;;42.33;24.45;;;4.50;99.90;;;;;;6255106;28;20159;-82
2023/01/24 10:46:06;;;;;;;22.95;13.18;;;4.60;99.90;;;;;;6255473;28;20060;-80
2023/01/24 10:49:11;;;;;;;19.45;13.80;;;4.60;99.90;;;;;;6255729;28;20053;-80
2023/01/24 10:52:16;;;;;;;16.00;9.38;;;4.60;99.90;;;;;;6257286;28;20049;-81
2023/01/24 10:55:34;;;;;;;20.42;12.68;;;4.70;99.90;;;;;;6262251;28;20052;-80
2023/01/24 10:58:40;;;;;;;;;;;4.70;99.90;;;;;;6282576;28;20053;-80
2023/01/24 11:01:54;;;;;;;24.85;13.15;;;4.60;99.90;;;;;;6280943;28;19909;-83
2023/01/24 11:05:00;;;;;;;23.17;13.50;;;4.60;99.90;;;;;;6275983;28;20060;-81
2023/01/24 11:08:04;;;;;;;20.75;12.93;;;4.70;99.90;;;;;;6275373;28;20045;-81
2023/01/24 11:11:22;;;;;;;17.15;10.38;;;4.70;99.90;;;;;;6284112;28;20048;-79
2023/01/24 11:14:29;;;;;;;20.08;12.15;;;4.80;99.90;;;;;;6285327;28;20053;-81
2023/01/24 11:17:34;;;;;;;26.88;13.02;;;4.80;99.90;;;;;;6280230;28;20088;-80
2023/01/24 11:20:37;;;;;;;17.02;10.57;;;4.80;99.90;;;;;;6285891;28;20049;-82
2023/01/24 11:23:39;;;;;;;18.05;11.73;;;4.90;99.90;;;;;;6279731;28;20045;-81
2023/01/24 11:27:03;;;;;;;18.20;11.70;;;4.80;99.90;;;;;;6273185;28;20414;-80
2023/01/24 11:30:15;;;;;;;20.90;10.93;;;4.80;99.90;;;;;;6269149;28;20647;-79
2023/01/24 11:33:34;;;;;;;19.55;10.02;;;4.80;99.90;;;;;;6248086;28;20049;-79
2023/01/24 11:36:41;;;;;;;20.33;10.63;;;4.90;99.90;;;;;;6249868;28;20041;-81
2023/01/24 11:44:41;;;;;;;29.23;17.92;;;4.90;99.90;;;;;;6182472;28;20053;-81
2023/01/24 11:47:55;;;;;;;19.80;13.43;;;5.00;99.90;;;;;;6248550;28;20499;-81
2023/01/24 11:51:06;;;;;;;19.17;12.18;;;5.00;99.90;;;;;;6233138;28;20056;-81
2023/01/24 11:54:22;;;;;;;22.33;13.43;;;4.90;99.90;;;;;;6229414;28;20050;-80
2023/01/24 11:57:43;;;;;;;15.52;9.90;;;5.00;99.90;;;;;;6251841;28;20128;-81
2023/01/24 12:00:54;;;;;;;17.08;11.38;;;5.00;99.90;;;;;;6248060;28;20100;-79
2023/01/24 12:04:37;;;;;;;22.48;15.43;;;5.00;99.90;;;;;;6246983;28;20045;-78
2023/01/24 12:07:51;;;;;;;30.40;18.00;;;5.00;99.90;;;;;;6196508;28;20423;-79
2023/01/24 12:11:01;;;;;;;20.67;13.48;;;5.00;99.90;;;;;;6247005;28;20439;-78
2023/01/24 12:14:32;;;;;;;79.70;41.05;;;5.00;99.90;;;;;;6248443;28;20052;-77
2023/01/24 12:17:48;;;;;;;61.33;33.35;;;5.10;99.90;;;;;;6245798;28;20049;-79
2023/01/24 12:21:15;;;;;;;35.63;19.73;;;5.10;99.90;;;;;;6245876;28;20053;-78
2023/01/24 12:24:23;;;;;;;53.00;27.20;;;5.10;99.90;;;;;;6239746;28;20050;-80
2023/01/24 12:27:27;;;;;;;70.80;30.05;;;5.10;99.90;;;;;;6251718;28;20046;-81
2023/01/24 12:30:34;;;;;;;21.45;11.80;;;5.10;99.90;;;;;;6234581;28;20046;-77
2023/01/24 12:33:49;;;;;;;16.97;12.77;;;5.10;99.90;;;;;;6222139;28;20532;-77
2023/01/24 12:37:08;;;;;;;15.52;10.70;;;5.10;99.90;;;;;;6226314;28;20667;-78
2023/01/24 12:40:30;;;;;;;20.35;11.82;;;5.30;99.90;;;;;;6222675;28;20444;-79
2023/01/24 12:43:47;;;;;;;16.50;10.35;;;5.20;99.90;;;;;;6223354;28;20092;-79
2023/01/24 12:47:07;;;;;;;12.48;9.88;;;5.30;99.90;;;;;;6223446;28;20073;-79
2023/01/24 12:50:19;;;;;;;14.50;9.02;;;5.30;99.90;;;;;;6224075;28;20053;-79
2023/01/24 12:53:30;;;;;;;15.15;10.45;;;5.40;99.90;;;;;;6223015;28;20057;-77
2023/01/24 12:56:50;;;;;;;18.65;9.60;;;5.40;99.90;;;;;;6238948;28;20045;-79
2023/01/24 12:59:54;;;;;;;15.95;10.30;;;5.40;99.90;;;;;;6245672;28;20056;-79
2023/01/24 13:03:22;;;;;;;16.88;8.90;;;5.40;99.90;;;;;;6246713;28;20045;-80
2023/01/24 13:06:36;;;;;;;18.00;9.45;;;5.40;99.90;;;;;;6247350;28;20049;-80
2023/01/24 13:09:53;;;;;;;13.38;9.23;;;5.40;99.90;;;;;;6245556;28;20084;-80
2023/01/24 13:12:55;;;;;;;19.13;14.52;;;5.40;99.90;;;;;;6245932;28;20372;-79
2023/01/24 13:16:27;;;;;;;17.90;12.98;;;5.40;99.90;;;;;;6248568;28;20049;-78
2023/01/24 13:19:44;;;;;;;44.47;20.42;;;5.40;99.90;;;;;;6251662;28;20050;-80
2023/01/24 13:23:18;;;;;;;33.83;14.70;;;5.40;99.90;;;;;;6251505;28;20049;-79
2023/01/24 13:26:44;;;;;;;25.00;15.50;;;5.40;99.90;;;;;;6247878;28;20057;-79
2023/01/24 13:30:05;;;;;;;36.88;20.40;;;5.40;99.90;;;;;;6253512;28;20483;-79
2023/01/24 13:33:12;;;;;;;19.05;11.65;;;5.50;99.90;;;;;;6226132;28;20054;-79
2023/01/24 13:36:18;;;;;;;17.50;8.93;;;5.50;99.90;;;;;;6227098;28;20068;-79
2023/01/24 13:39:32;;;;;;;18.95;9.73;;;5.40;99.90;;;;;;6227467;28;20050;-79
2023/01/24 13:42:37;;;;;;;12.73;8.07;;;5.30;99.90;;;;;;6229513;28;20499;-80
2023/01/24 13:45:49;;;;;;;16.95;8.30;;;5.30;99.90;;;;;;6228782;28;20054;-78
2023/01/24 13:48:57;;;;;;;16.85;10.57;;;5.30;99.90;;;;;;6232566;28;20049;-79
2023/01/24 13:52:00;;;;;;;13.43;8.70;;;5.40;99.90;;;;;;6253275;28;20128;-79
2023/01/24 13:55:04;;;;;;;19.38;12.68;;;5.40;99.90;;;;;;6249179;28;20072;-79
2023/01/24 13:58:20;;;;;;;15.82;12.13;;;5.30;99.90;;;;;;6241344;28;20045;-78
2023/01/24 14:01:22;;;;;;;16.55;10.93;;;5.30;99.90;;;;;;6260955;28;20050;-79
2023/01/24 14:04:40;;;;;;;16.77;10.32;;;5.30;99.90;;;;;;6253553;28;20120;-79
2023/01/24 14:07:42;;;;;;;20.77;13.50;;;5.30;99.90;;;;;;6252887;28;20049;-79
2023/01/24 14:10:47;;;;;;;20.55;14.68;;;5.30;99.90;;;;;;6253579;28;21014;-79
2023/01/24 14:14:01;;;;;;;26.40;17.23;;;5.30;99.90;;;;;;6254720;28;20140;-79
2023/01/24 14:17:49;;;;;;;18.63;16.17;;;5.30;99.90;;;;;;6255011;28;20099;-80
2023/01/24 14:20:51;;;;;;;19.02;12.52;;;5.30;99.90;;;;;;6251009;28;20100;-79
2023/01/24 14:23:57;;;;;;;15.63;10.63;;;5.30;99.90;;;;;;6245730;28;20076;-78
2023/01/24 14:27:00;;;;;;;11.70;7.38;;;5.20;99.90;;;;;;6250986;28;20075;-80
2023/01/24 14:30:30;;;;;;;15.85;11.10;;;5.20;99.90;;;;;;6252341;28;20056;-79
2023/01/24 14:33:44;;;;;;;15.23;10.10;;;5.20;99.90;;;;;;6227903;28;20080;-78
2023/01/24 14:36:50;;;;;;;15.48;9.45;;;5.10;99.90;;;;;;6226299;28;20081;-78
2023/01/24 14:39:52;;;;;;;23.63;11.90;;;5.20;99.90;;;;;;6226390;28;20567;-79
2023/01/24 14:43:00;;;;;;;18.30;9.98;;;5.20;99.90;;;;;;6227469;28;20050;-79
2023/01/24 14:46:12;;;;;;;14.55;11.00;;;5.20;99.90;;;;;;6226517;28;20420;-78
2023/01/24 14:49:14;;;;;;;22.10;10.50;;;5.10;99.90;;;;;;6227553;28;20046;-79
2023/01/24 14:52:19;;;;;;;14.65;10.25;;;5.10;99.90;;;;;;6226609;28;20042;-79
2023/01/24 14:55:33;;;;;;;18.45;11.27;;;5.10;99.90;;;;;;6238202;28;20046;-80
2023/01/24 14:58:35;;;;;;;16.95;10.40;;;5.20;99.90;;;;;;6253436;28;20068;-79
2023/01/24 15:01:38;;;;;;;19.83;10.65;;;5.10;99.90;;;;;;6254808;28;20550;-80
2023/01/24 15:04:45;;;;;;;16.25;10.75;;;5.10;99.90;;;;;;6253791;28;20438;-79
2023/01/24 15:07:47;;;;;;;18.35;11.75;;;5.10;99.90;;;;;;6252565;28;20419;-80
2023/01/24 15:10:55;;;;;;;16.00;9.55;;;5.00;99.90;;;;;;6254849;28;20050;-79
2023/01/24 15:14:00;;;;;;;14.43;11.10;;;5.00;99.90;;;;;;6251044;28;20053;-81
2023/01/24 15:17:03;;;;;;;21.58;13.13;;;5.00;99.90;;;;;;6253339;28;20052;-79
2023/01/24 15:20:10;;;;;;;17.63;11.02;;;5.00;99.90;;;;;;6253088;28;20042;-80
2023/01/24 15:23:20;;;;;;;22.08;12.18;;;5.00;99.90;;;;;;6248086;28;20056;-78
2023/01/24 15:26:39;;;;;;;20.45;10.75;;;5.00;99.90;;;;;;6247034;28;20049;-79
2023/01/24 15:29:44;;;;;;;24.85;12.02;;;5.00;99.90;;;;;;6251363;28;20041;-78
2023/01/24 15:32:49;;;;;;;17.20;11.02;;;4.90;99.90;;;;;;6244673;28;20068;-78
2023/01/24 15:35:53;;;;;;;19.88;10.52;;;5.00;99.90;;;;;;6224911;28;20053;-81
2023/01/24 15:38:57;;;;;;;16.55;10.77;;;4.90;99.90;;;;;;6225521;28;20050;-78
2023/01/24 15:45:19;;;;;;;16.40;10.65;;;4.80;99.90;;;;;;6226719;28;20042;-80
2023/01/24 15:48:24;;;;;;;14.18;10.82;;;4.80;99.90;;;;;;6229515;28;20056;-78
2023/01/24 15:51:32;;;;;;;16.88;11.02;;;4.80;99.90;;;;;;6249347;28;20041;-80
2023/01/24 15:54:34;;;;;;;21.13;12.48;;;4.70;99.90;;;;;;6247890;28;20056;-80
2023/01/24 15:57:39;;;;;;;20.73;11.60;;;4.70;99.90;;;;;;6251426;28;20163;-79
2023/01/24 16:00:40;;;;;;;20.23;10.85;;;4.80;99.90;;;;;;6251646;28;20522;-80
2023/01/24 16:03:44;;;;;;;19.02;11.38;;;4.80;99.90;;;;;;6255763;28;20038;-80
2023/01/24 16:06:49;;;;;;;24.80;12.95;;;4.80;99.90;;;;;;6254024;28;20061;-81
2023/01/24 16:09:54;;;;;;;16.80;11.15;;;4.70;99.90;;;;;;6255307;28;20049;-81
2023/01/24 16:12:56;;;;;;;17.85;10.25;;;4.70;99.90;;;;;;6257610;28;20042;-80
2023/01/24 16:16:00;;;;;;;18.52;11.88;;;4.70;99.90;;;;;;6256020;28;20049;-80
2023/01/24 16:19:03;;;;;;;13.52;9.63;;;4.70;99.90;;;;;;6254117;28;20049;-80
2023/01/24 16:22:05;;;;;;;14.63;10.13;;;4.70;99.90;;;;;;6255440;28;20057;-80
2023/01/24 16:25:13;;;;;;;16.10;9.90;;;4.70;99.90;;;;;;6254363;28;20050;-80
2023/01/24 16:28:20;;;;;;;19.08;10.90;;;4.70;99.90;;;;;;6243984;28;20056;-80
2023/01/24 16:31:24;;;;;;;20.95;10.88;;;4.60;99.90;;;;;;6222153;28;20061;-80
2023/01/24 16:34:27;;;;;;;25.08;11.70;;;4.60;99.90;;;;;;6222405;28;20412;-80
2023/01/24 16:41:26;;;;;;;19.00;11.48;;;4.60;99.90;;;;;;6160216;28;20141;-81
2023/01/24 16:44:34;;;;;;;13.95;9.30;;;4.60;99.90;;;;;;6230403;28;20136;-81
2023/01/24 16:47:52;;;;;;;16.50;11.48;;;4.60;99.90;;;;;;6230232;28;20057;-81
2023/01/24 16:50:55;;;;;;;20.35;11.50;;;4.50;99.90;;;;;;6237522;28;20056;-82
2023/01/24 16:54:00;;;;;;;19.40;10.52;;;4.50;99.90;;;;;;6240045;28;20045;-81
2023/01/24 16:57:02;;;;;;;17.10;11.25;;;4.50;99.90;;;;;;6259412;28;20041;-82
2023/01/24 17:00:05;;;;;;;19.92;12.55;;;4.50;99.90;;;;;;6234163;28;20054;-81